首页
METAR-TAF:

METAR-TAF

机场 :

利伯維爾國際機場

利伯维尔, 加蓬

纬度: 00-27N, 经度: 009-25E, 海拔: 12米

当前天气观测

该预报发布于34分钟前的07:30 UTC
风速10节,风向南转南东
温度 25°C
湿度 79%
气压 1015 hPa
能见度10公里或以上
散云层高于900英尺
多云层高于1700英尺

METAR: FOOL 230730Z 15010KT 9999 SCT009 BKN017 25/21 Q1015 NOSIG

时间: 09:04 (08:04 UTC)

预报

该预报发布于3小时和4分钟前的05:00 UTC
预报有效从23日的 06点(UTC)到 24日的 12点(UTC)
风速10节,风向
能见度10公里或以上
散云层高于1000英尺
多云层高于2300英尺
短暂存在
从 24日的 06点(UTC)到 24日的 12点(UTC)
能見度: 4000
散云层高于1400英尺
少量云层高于1800英尺, 积雨云.
多云层高于2800英尺
雷暴, 雨

TAF: FOOL 230500Z 2306/2412 17010KT 9999 SCT010 BKN023 TEMPO 2406/2412 4000 TSRA SCT014 FEW018CB BKN028

超过4000个机场的气象观测和天气预报(METAR&TAF报告)。

可查询的气象台以黄色和红色小点在地图上表示。

将鼠标移到小点上方,可查看气象台名称。

然后点击查看天气观测和预报。

如需切换地图:点击带黑十字的绿色按钮放大地图;点击带横线的绿色按钮缩小地图;或者点击绿色箭头查看邻近地区的地图。


METAR-TAF: